Time;durP1;ratioP1;P1;durP2;ratioP2;P2;SDS_P1;SDS_P2;PMS_P1;PMS_P2;Temp;Humidity;BMP_temperature;BMP_pressure;BME280_temperature;BME280_humidity;BME280_pressure;Samples;Min_cycle;Max_cycle;Signal;HPM_P1;HPM_P2
2023/08/25 00:00:50;;;;;;;;;;;;;;;23.06;68.73;99418.44;1087275;54;19950;-81
2023/08/25 00:01:54;;;;;;;;;;;;;;;22.98;69.30;99407.09;1087513;54;19965;-80
2023/08/25 00:02:58;;;;;;;;;;;;;;;22.94;69.47;99408.66;1087697;54;19996;-78
2023/08/25 00:04:03;;;;;;;;;;;;;;;22.98;69.16;99413.38;1087455;47;19969;-79
2023/08/25 00:05:04;;;;;;;;;;;;;;;22.98;69.30;99402.47;1087279;54;19942;-81
2023/08/25 00:06:07;;;;;;;;;;;;;;;23.01;69.37;99403.88;1087661;54;19946;-81
2023/08/25 00:07:08;;;;;;;;;;;;;;;23.02;69.12;99405.53;1087792;54;19950;-81
2023/08/25 00:08:12;;;;;;;;;;;;;;;22.93;69.44;99407.00;1087855;54;19933;-82
2023/08/25 00:09:13;;;;;;;;;;;;;;;22.98;69.09;99417.97;1087655;46;19982;-79
2023/08/25 00:10:16;;;;;;;;;;;;;;;22.96;69.56;99415.50;1087354;54;19943;-80
2023/08/25 00:11:18;;;;;;;;;;;;;;;22.96;69.32;99418.22;1087187;47;19943;-81
2023/08/25 00:12:23;;;;;;;;;;;;;;;23.00;69.34;99415.84;1087202;54;19992;-80
2023/08/25 00:13:24;;;;;;;;;;;;;;;23.00;69.31;99416.66;1087389;54;19973;-82
2023/08/25 00:14:28;;;;;;;;;;;;;;;22.98;69.54;99420.72;1087339;54;19942;-81
2023/08/25 00:15:30;;;;;;;;;;;;;;;22.98;69.48;99423.44;1087167;47;20938;-81
2023/08/25 00:16:39;;;;;;;;;;;;;;;23.03;69.00;99426.28;1087202;54;19950;-80
2023/08/25 00:17:42;;;;;;;;;;;;;;;23.01;69.15;99426.50;1087153;47;20073;-81
2023/08/25 00:18:48;;;;;;;;;;;;;;;23.00;69.27;99429.47;1087229;47;19986;-82
2023/08/25 00:19:50;;;;;;;;;;;;;;;22.95;69.20;99429.38;1089148;39;20225;-80
2023/08/25 00:20:53;;;;;;;;;;;;;;;22.98;69.02;99426.16;1087417;54;19949;-80
2023/08/25 00:21:54;;;;;;;;;;;;;;;22.99;69.22;99425.09;1087466;54;19943;-80
2023/08/25 00:22:57;;;;;;;;;;;;;;;22.97;69.21;99422.63;1087322;54;19942;-79
2023/08/25 00:23:58;;;;;;;;;;;;;;;22.97;69.54;99422.63;1087408;54;19974;-80
2023/08/25 00:25:02;;;;;;;;;;;;;;;23.01;69.18;99422.97;1087349;54;20688;-80
2023/08/25 00:26:03;;;;;;;;;;;;;;;22.93;69.37;99423.34;1087313;54;19943;-83
2023/08/25 00:27:07;;;;;;;;;;;;;;;22.94;69.31;99422.28;1087428;54;19943;-81
2023/08/25 00:28:07;;;;;;;;;;;;;;;22.94;69.16;99423.09;1087201;47;19943;-80
2023/08/25 00:29:11;;;;;;;;;;;;;;;22.92;69.56;99427.94;1087170;47;19966;-80
2023/08/25 00:30:13;;;;;;;;;;;;;;;22.96;69.17;99423.69;1086926;47;19942;-80
2023/08/25 00:31:17;;;;;;;;;;;;;;;22.95;69.43;99418.50;1087567;39;20672;-80
2023/08/25 00:32:17;;;;;;;;;;;;;;;22.99;68.98;99420.50;1087118;54;19942;-82
2023/08/25 00:33:21;;;;;;;;;;;;;;;22.96;69.12;99420.13;1087189;47;19943;-80
2023/08/25 00:34:27;;;;;;;;;;;;;;;23.02;69.34;99413.72;1087128;47;19994;-81
2023/08/25 00:35:30;;;;;;;;;;;;;;;23.02;69.05;99419.16;1087193;54;19949;-80
2023/08/25 00:36:31;;;;;;;;;;;;;;;22.97;69.67;99421.78;1087102;47;19982;-82
2023/08/25 00:37:34;;;;;;;;;;;;;;;22.99;69.39;99409.59;1088188;39;20994;-82
2023/08/25 00:38:35;;;;;;;;;;;;;;;22.97;69.18;99416.31;1087142;47;19942;-79
2023/08/25 00:39:38;;;;;;;;;;;;;;;22.93;69.62;99410.53;1087046;47;19970;-80
2023/08/25 00:40:40;;;;;;;;;;;;;;;22.94;69.59;99412.19;1087105;47;20315;-80
2023/08/25 00:41:44;;;;;;;;;;;;;;;22.97;69.25;99413.59;1087087;47;19946;-80
2023/08/25 00:42:44;;;;;;;;;;;;;;;23.01;69.04;99412.06;1087240;46;19975;-79
2023/08/25 00:43:48;;;;;;;;;;;;;;;23.05;69.23;99414.06;1087325;54;19942;-80
2023/08/25 00:44:51;;;;;;;;;;;;;;;23.05;69.07;99418.66;1087056;47;19943;-81
2023/08/25 00:45:54;;;;;;;;;;;;;;;23.09;69.23;99419.03;1087132;46;20653;-80
2023/08/25 00:46:55;;;;;;;;;;;;;;;23.12;68.87;99413.91;1087158;54;19991;-79
2023/08/25 00:47:59;;;;;;;;;;;;;;;23.09;68.82;99414.41;1087025;47;19947;-80
2023/08/25 00:49:00;;;;;;;;;;;;;;;23.10;69.31;99407.03;1087143;47;19943;-81
2023/08/25 00:50:09;;;;;;;;;;;;;;;23.13;69.05;99415.56;1087064;54;19943;-80
2023/08/25 00:51:09;;;;;;;;;;;;;;;23.12;68.67;99413.91;1087209;47;19950;-80
2023/08/25 00:52:13;;;;;;;;;;;;;;;23.13;68.78;99409.28;1086988;54;19942;-81
2023/08/25 00:53:14;;;;;;;;;;;;;;;23.09;69.09;99398.03;1087378;54;19953;-80
2023/08/25 00:54:18;;;;;;;;;;;;;;;23.00;69.72;99407.69;1087098;47;19942;-80
2023/08/25 00:55:19;;;;;;;;;;;;;;;23.01;69.49;99406.59;1087086;47;20793;-79
2023/08/25 00:56:23;;;;;;;;;;;;;;;22.99;69.12;99409.59;1087105;47;20282;-80
2023/08/25 00:57:24;;;;;;;;;;;;;;;22.97;69.53;99406.25;1087174;47;19943;-81
2023/08/25 00:58:27;;;;;;;;;;;;;;;22.94;69.88;99411.38;1087837;31;21057;-80
2023/08/25 00:59:29;;;;;;;;;;;;;;;22.98;69.38;99413.38;1087106;47;19942;-80
2023/08/25 01:00:31;;;;;;;;;;;;;;;23.00;69.67;99411.22;1087115;47;19974;-80
2023/08/25 01:01:34;;;;;;;;;;;;;;;22.99;69.59;99409.59;1087158;47;19943;-80
2023/08/25 01:02:36;;;;;;;;;;;;;;;23.00;69.45;99410.41;1087068;47;19942;-81
2023/08/25 01:03:40;;;;;;;;;;;;;;;23.04;69.30;99417.03;1087081;47;20019;-81
2023/08/25 01:04:41;;;;;;;;;;;;;;;22.93;69.84;99410.53;1086971;54;19965;-80
2023/08/25 01:05:49;;;;;;;;;;;;;;;22.94;69.53;99419.56;1087088;47;19949;-80
2023/08/25 01:06:50;;;;;;;;;;;;;;;22.99;69.28;99411.47;1087986;39;20240;-82
2023/08/25 01:07:53;;;;;;;;;;;;;;;22.97;69.56;99405.41;1087145;47;19943;-80
2023/08/25 01:08:54;;;;;;;;;;;;;;;22.96;69.74;99407.34;1087072;54;19942;-80
2023/08/25 01:09:58;;;;;;;;;;;;;;;22.95;69.76;99407.59;1087300;54;19973;-80
2023/08/25 01:11:03;;;;;;;;;;;;;;;22.95;69.50;99410.31;1087066;47;19942;-79
2023/08/25 01:12:10;;;;;;;;;;;;;;;22.87;70.06;99412.31;1087428;47;19969;-80
2023/08/25 01:13:16;;;;;;;;;;;;;;;22.93;69.88;99415.16;1087278;47;19943;-79
2023/08/25 01:14:24;;;;;;;;;;;;;;;22.89;69.81;99407.47;1087333;47;19949;-78
2023/08/25 01:15:28;;;;;;;;;;;;;;;22.81;70.12;99413.28;1087371;54;20258;-79
2023/08/25 01:16:37;;;;;;;;;;;;;;;22.82;70.34;99405.94;1087319;47;19943;-80
2023/08/25 01:17:40;;;;;;;;;;;;;;;22.81;70.47;99410.56;1087486;54;19942;-80
2023/08/25 01:18:44;;;;;;;;;;;;;;;22.82;70.38;99404.06;1087570;54;20003;-81
2023/08/25 01:19:50;;;;;;;;;;;;;;;22.84;70.25;99403.81;1087602;54;19942;-79
2023/08/25 01:20:58;;;;;;;;;;;;;;;22.82;70.02;99404.06;1087675;54;19966;-80
2023/08/25 01:21:59;;;;;;;;;;;;;;;22.87;70.01;99398.69;1087446;47;19990;-79
2023/08/25 01:23:06;;;;;;;;;;;;;;;22.90;69.73;99395.50;1087333;54;20347;-80
2023/08/25 01:24:11;;;;;;;;;;;;;;;22.93;69.67;99390.66;1087239;54;19955;-80
2023/08/25 01:25:32;;;;;;;;;;;;;;;22.97;69.43;99391.78;1087294;47;19942;-81
2023/08/25 01:26:36;;;;;;;;;;;;;;;22.98;69.48;99390.72;1087326;46;19942;-79
2023/08/25 01:27:39;;;;;;;;;;;;;;;22.99;69.37;99386.94;1087414;47;19943;-78
2023/08/25 01:28:40;;;;;;;;;;;;;;;23.01;69.31;99385.63;1087360;54;19966;-79
2023/08/25 01:29:47;;;;;;;;;;;;;;;23.01;69.44;99388.34;1087293;54;19966;-80
2023/08/25 01:30:49;;;;;;;;;;;;;;;23.02;69.35;99390.00;1087297;47;19943;-81
2023/08/25 01:31:54;;;;;;;;;;;;;;;23.04;69.07;99389.78;1087421;47;19943;-79
2023/08/25 01:32:55;;;;;;;;;;;;;;;23.01;69.39;99384.81;1087434;47;19959;-82
2023/08/25 01:34:01;;;;;;;;;;;;;;;23.02;69.37;99386.47;1087385;47;19942;-81
2023/08/25 01:35:02;;;;;;;;;;;;;;;23.04;69.04;99384.31;1088330;39;20579;-82
2023/08/25 01:36:08;;;;;;;;;;;;;;;23.03;69.41;99378.03;1088477;39;20050;-81
2023/08/25 01:37:16;;;;;;;;;;;;;;;23.04;69.18;99384.31;1087344;47;19950;-81
2023/08/25 01:38:19;;;;;;;;;;;;;;;23.01;69.00;99380.16;1087584;47;19943;-81
2023/08/25 01:39:24;;;;;;;;;;;;;;;23.04;69.11;99378.88;1087345;47;19942;-80
2023/08/25 01:40:27;;;;;;;;;;;;;;;23.05;69.07;99380.50;1087333;51;19942;-80
2023/08/25 01:41:33;;;;;;;;;;;;;;;23.01;69.43;99388.34;1088647;39;20165;-79
2023/08/25 01:42:39;;;;;;;;;;;;;;;23.00;69.42;99378.50;1087676;54;19958;-80
2023/08/25 01:43:46;;;;;;;;;;;;;;;23.03;69.27;99382.66;1087323;47;19954;-80
2023/08/25 01:44:47;;;;;;;;;;;;;;;23.04;69.18;99387.06;1087355;54;19942;-79
2023/08/25 01:45:51;;;;;;;;;;;;;;;22.99;69.24;99381.50;1087352;54;19982;-78
2023/08/25 01:46:54;;;;;;;;;;;;;;;23.01;69.21;99379.34;1087603;47;19943;-79
2023/08/25 01:47:59;;;;;;;;;;;;;;;22.94;69.39;99384.13;1087457;54;20320;-78
2023/08/25 01:49:01;;;;;;;;;;;;;;;23.00;69.53;99374.97;1087597;54;19946;-81
2023/08/25 01:50:02;;;;;;;;;;;;;;;23.00;69.23;99377.69;1087210;47;20014;-80
2023/08/25 01:51:07;;;;;;;;;;;;;;;23.00;69.42;99377.69;1087335;47;19942;-79
2023/08/25 01:52:09;;;;;;;;;;;;;;;22.97;69.36;99380.91;1087428;47;19947;-80
2023/08/25 01:53:13;;;;;;;;;;;;;;;22.91;69.39;99385.41;1087330;47;19950;-79
2023/08/25 01:54:13;;;;;;;;;;;;;;;22.83;69.80;99378.47;1087420;54;19942;-79
2023/08/25 01:55:17;;;;;;;;;;;;;;;22.84;69.66;99380.13;1087601;54;21163;-79
2023/08/25 01:56:18;;;;;;;;;;;;;;;22.90;69.55;99381.88;1092008;39;20891;-80
2023/08/25 01:57:21;;;;;;;;;;;;;;;22.75;69.93;99376.94;1087446;47;19942;-79
2023/08/25 01:58:24;;;;;;;;;;;;;;;22.77;70.07;99379.41;1088322;39;20577;-81
2023/08/25 01:59:28;;;;;;;;;;;;;;;22.73;70.51;99373.63;1090346;39;20673;-81
2023/08/25 02:00:29;;;;;;;;;;;;;;;22.80;70.11;99381.66;1087318;54;19966;-79
2023/08/25 02:01:32;;;;;;;;;;;;;;;22.85;70.08;99379.06;1087481;54;20018;-80
2023/08/25 02:02:33;;;;;;;;;;;;;;;22.82;69.69;99379.53;1087336;47;19943;-78
2023/08/25 02:03:36;;;;;;;;;;;;;;;22.81;70.19;99380.59;1087252;54;19943;-78
2023/08/25 02:04:37;;;;;;;;;;;;;;;22.76;70.63;99377.78;1088732;39;20610;-79
2023/08/25 02:05:41;;;;;;;;;;;;;;;22.79;70.50;99376.47;1087335;54;19967;-80
2023/08/25 02:06:41;;;;;;;;;;;;;;;22.75;70.52;99387.03;1088760;39;20536;-78
2023/08/25 02:07:45;;;;;;;;;;;;;;;22.75;70.88;99384.31;1087345;54;19966;-79
2023/08/25 02:08:47;;;;;;;;;;;;;;;22.69;70.72;99386.09;1087297;47;19938;-79
2023/08/25 02:09:53;;;;;;;;;;;;;;;22.64;71.06;99396.06;1087238;47;19943;-80
2023/08/25 02:10:54;;;;;;;;;;;;;;;22.58;71.44;99390.47;1087241;47;19943;-81
2023/08/25 02:11:57;;;;;;;;;;;;;;;22.62;70.98;99393.56;1087903;46;20002;-78
2023/08/25 02:12:58;;;;;;;;;;;;;;;22.57;71.37;99388.84;1087545;54;20327;-80
2023/08/25 02:14:04;;;;;;;;;;;;;;;22.56;71.39;99391.78;1087239;47;19949;-79
2023/08/25 02:15:05;;;;;;;;;;;;;;;22.62;70.91;99392.75;1087240;51;19942;-78
2023/08/25 02:16:09;;;;;;;;;;;;;;;22.64;71.18;99393.31;1087321;54;19965;-79
2023/08/25 02:17:10;;;;;;;;;;;;;;;22.62;71.14;99398.19;1087235;47;19942;-79
2023/08/25 02:18:13;;;;;;;;;;;;;;;22.63;71.00;99391.66;1087751;39;20262;-80
2023/08/25 02:19:14;;;;;;;;;;;;;;;22.61;71.32;99385.63;1087217;47;19960;-78
2023/08/25 02:20:18;;;;;;;;;;;;;;;22.66;70.91;99389.28;1087262;46;19992;-79
2023/08/25 02:21:19;;;;;;;;;;;;;;;22.65;71.21;99384.91;1087353;54;19966;-79
2023/08/25 02:22:22;;;;;;;;;;;;;;;22.73;70.75;99397.34;1087089;47;19967;-81
2023/08/25 02:23:23;;;;;;;;;;;;;;;22.76;70.44;99396.88;1087225;54;19942;-80
2023/08/25 02:24:26;;;;;;;;;;;;;;;22.74;70.54;99388.09;1087232;46;19942;-80
2023/08/25 02:25:27;;;;;;;;;;;;;;;22.77;70.48;99393.03;1087285;54;19943;-80
2023/08/25 02:26:34;;;;;;;;;;;;;;;22.77;70.66;99387.59;1087246;47;19966;-79
2023/08/25 02:27:40;;;;;;;;;;;;;;;22.81;70.36;99387.97;1087257;54;19942;-79
2023/08/25 02:28:43;;;;;;;;;;;;;;;22.82;70.20;99386.88;1087233;51;19950;-80
2023/08/25 02:29:47;;;;;;;;;;;;;;;22.83;70.36;99378.47;1087174;54;19942;-79
2023/08/25 02:30:51;;;;;;;;;;;;;;;22.84;70.16;99380.13;1089686;39;20212;-79
2023/08/25 02:31:51;;;;;;;;;;;;;;;22.85;70.14;99381.78;1087272;47;19954;-80
2023/08/25 02:32:55;;;;;;;;;;;;;;;22.84;70.20;99384.72;1087271;47;19950;-79
2023/08/25 02:33:55;;;;;;;;;;;;;;;22.86;69.95;99385.31;1087157;47;19967;-79
2023/08/25 02:34:56;;;;;;;;;;;;;;;22.88;70.14;99375.03;1087224;47;19939;-79
2023/08/25 02:35:59;;;;;;;;;;;;;;;22.84;70.07;99380.13;1087277;54;19942;-78
2023/08/25 02:37:01;;;;;;;;;;;;;;;22.86;70.21;99371.69;1087313;47;19942;-80
2023/08/25 02:38:05;;;;;;;;;;;;;;;22.87;70.09;99382.34;1087278;54;20651;-80
2023/08/25 02:39:06;;;;;;;;;;;;;;;22.87;69.99;99379.63;1087331;47;20770;-83
2023/08/25 02:40:12;;;;;;;;;;;;;;;22.85;70.37;99379.06;1087270;54;19943;-80
2023/08/25 02:41:13;;;;;;;;;;;;;;;22.85;69.95;99378.22;1087361;47;20914;-80
2023/08/25 02:42:16;;;;;;;;;;;;;;;22.86;70.05;99371.69;1087389;46;19967;-81
2023/08/25 02:43:17;;;;;;;;;;;;;;;22.85;70.63;99370.88;1087410;47;19963;-80
2023/08/25 02:44:20;;;;;;;;;;;;;;;22.82;70.71;99368.63;1087457;54;19942;-81
2023/08/25 02:45:24;;;;;;;;;;;;;;;22.79;70.60;99374.56;1087146;54;19949;-79
2023/08/25 02:46:28;;;;;;;;;;;;;;;22.80;70.73;99378.13;1087248;47;20010;-80
2023/08/25 02:47:29;;;;;;;;;;;;;;;22.82;70.69;99374.09;1087175;47;19966;-80
2023/08/25 02:48:33;;;;;;;;;;;;;;;22.82;70.98;99371.38;1087178;47;19943;-80
2023/08/25 02:49:33;;;;;;;;;;;;;;;22.82;70.54;99371.38;1087296;47;20012;-80
2023/08/25 02:50:39;;;;;;;;;;;;;;;22.79;70.63;99373.75;1087253;54;19942;-82
2023/08/25 02:51:40;;;;;;;;;;;;;;;22.77;70.83;99382.16;1087318;47;21113;-79
2023/08/25 02:52:41;;;;;;;;;;;;;;;22.80;71.24;99373.50;1087264;47;19954;-80
2023/08/25 02:53:44;;;;;;;;;;;;;;;22.80;70.78;99368.03;1087169;47;19949;-79
2023/08/25 02:54:46;;;;;;;;;;;;;;;22.77;70.86;99371.25;1087275;54;19983;-80
2023/08/25 02:55:49;;;;;;;;;;;;;;;22.65;71.41;99375.91;1087275;47;20744;-81
2023/08/25 02:56:50;;;;;;;;;;;;;;;22.67;71.24;99365.63;1087236;47;19966;-80
2023/08/25 02:57:54;;;;;;;;;;;;;;;22.70;71.29;99362.41;1087283;47;21184;-81
2023/08/25 02:58:54;;;;;;;;;;;;;;;22.68;71.27;99365.38;1087356;54;19966;-80
2023/08/25 02:59:58;;;;;;;;;;;;;;;22.68;71.01;99369.97;1087975;46;19990;-81
2023/08/25 03:01:01;;;;;;;;;;;;;;;22.68;70.98;99361.81;1087368;54;20036;-81
2023/08/25 03:02:05;;;;;;;;;;;;;;;22.67;71.20;99365.63;1087326;47;19950;-81
2023/08/25 03:03:05;;;;;;;;;;;;;;;22.64;71.08;99366.09;1087324;46;20804;-81
2023/08/25 03:04:09;;;;;;;;;;;;;;;22.65;71.01;99359.59;1087253;54;19942;-80
2023/08/25 03:05:10;;;;;;;;;;;;;;;22.65;71.18;99362.31;1087612;54;19943;-81
2023/08/25 03:06:13;;;;;;;;;;;;;;;22.64;71.08;99357.91;1087628;54;19994;-80
2023/08/25 03:07:14;;;;;;;;;;;;;;;22.66;71.23;99353.88;1087369;54;19965;-82
2023/08/25 03:08:20;;;;;;;;;;;;;;;22.69;70.88;99358.00;1087439;54;19942;-82
2023/08/25 03:09:20;;;;;;;;;;;;;;;22.69;70.99;99360.72;1087302;47;20015;-82
2023/08/25 03:10:21;;;;;;;;;;;;;;;22.69;70.49;99361.59;1087256;54;19942;-81
2023/08/25 03:11:25;;;;;;;;;;;;;;;22.71;70.93;99358.59;1087378;47;19943;-80
2023/08/25 03:12:26;;;;;;;;;;;;;;;22.73;70.92;99356.47;1087405;47;19943;-81
2023/08/25 03:13:30;;;;;;;;;;;;;;;22.73;70.91;99353.75;1087355;47;19942;-80
2023/08/25 03:14:31;;;;;;;;;;;;;;;22.74;70.59;99358.13;1087153;47;19944;-80
2023/08/25 03:15:35;;;;;;;;;;;;;;;22.73;70.87;99351.84;1087327;46;19943;-80
2023/08/25 03:16:38;;;;;;;;;;;;;;;22.73;70.58;99345.56;1087406;54;19949;-79
2023/08/25 03:17:43;;;;;;;;;;;;;;;22.66;70.93;99345.72;1087382;47;19943;-80
2023/08/25 03:18:44;;;;;;;;;;;;;;;22.62;70.82;99341.00;1087403;47;19942;-81
2023/08/25 03:19:48;;;;;;;;;;;;;;;22.64;70.90;99338.84;1087286;54;19942;-79
2023/08/25 03:20:50;;;;;;;;;;;;;;;22.61;70.52;99333.88;1087287;47;19942;-79
2023/08/25 03:21:54;;;;;;;;;;;;;;;22.62;70.66;99333.66;1087256;54;19967;-80
2023/08/25 03:22:55;;;;;;;;;;;;;;;22.63;70.66;99334.47;1087361;47;20356;-80
2023/08/25 03:23:56;;;;;;;;;;;;;;;22.63;70.41;99323.56;1087348;47;19990;-79
2023/08/25 03:25:00;;;;;;;;;;;;;;;22.66;70.44;99325.81;1087125;46;19943;-79
2023/08/25 03:26:02;;;;;;;;;;;;;;;22.65;70.72;99326.91;1087241;54;19942;-79
2023/08/25 03:27:05;;;;;;;;;;;;;;;22.65;70.75;99324.16;1087188;47;19943;-79
2023/08/25 03:28:06;;;;;;;;;;;;;;;22.64;70.87;99319.78;1087258;54;19942;-80
2023/08/25 03:29:10;;;;;;;;;;;;;;;22.64;70.73;99323.31;1087531;54;19967;-79
2023/08/25 03:30:11;;;;;;;;;;;;;;;22.64;70.45;99325.25;1087116;47;19977;-80
2023/08/25 03:31:15;;;;;;;;;;;;;;;22.62;70.81;99322.75;1087288;47;20019;-79
2023/08/25 03:32:19;;;;;;;;;;;;;;;22.62;70.81;99322.75;1087268;47;19942;-79
2023/08/25 03:33:22;;;;;;;;;;;;;;;22.63;70.70;99318.94;1089126;39;20197;-80
2023/08/25 03:34:23;;;;;;;;;;;;;;;22.62;71.07;99321.91;1087062;54;19943;-79
2023/08/25 03:35:27;;;;;;;;;;;;;;;22.58;71.14;99319.66;1087147;46;19988;-81
2023/08/25 03:36:30;;;;;;;;;;;;;;;22.57;71.17;99320.78;1087249;47;19966;-79
2023/08/25 03:37:33;;;;;;;;;;;;;;;22.60;70.85;99324.91;1088356;46;19962;-79
2023/08/25 03:38:37;;;;;;;;;;;;;;;22.59;70.79;99326.78;1087562;54;19943;-79
2023/08/25 03:39:41;;;;;;;;;;;;;;;22.57;71.02;99320.78;1087318;47;19942;-79
2023/08/25 03:40:43;;;;;;;;;;;;;;;22.60;70.82;99316.72;1087184;47;19974;-79
2023/08/25 03:41:46;;;;;;;;;;;;;;;22.62;70.71;99321.91;1087186;47;19943;-79
2023/08/25 03:42:47;;;;;;;;;;;;;;;22.62;70.33;99311.03;1087097;47;19943;-79
2023/08/25 03:43:50;;;;;;;;;;;;;;;22.65;70.70;99318.72;1087187;46;19966;-79
2023/08/25 03:44:51;;;;;;;;;;;;;;;22.66;70.39;99313.03;1087181;47;19950;-79
2023/08/25 03:45:54;;;;;;;;;;;;;;;22.67;70.77;99309.22;1087092;47;19965;-79
2023/08/25 03:46:55;;;;;;;;;;;;;;;22.68;70.28;99310.03;1087114;47;19998;-79
2023/08/25 03:48:02;;;;;;;;;;;;;;;22.62;70.42;99300.97;1087097;47;19935;-79
2023/08/25 03:49:03;;;;;;;;;;;;;;;22.63;70.16;99305.31;1087351;54;19998;-79
2023/08/25 03:50:07;;;;;;;;;;;;;;;22.63;70.17;99296.34;1087186;47;19943;-79
2023/08/25 03:51:08;;;;;;;;;;;;;;;22.59;70.38;99307.72;1087134;47;19969;-79
2023/08/25 03:52:12;;;;;;;;;;;;;;;22.61;70.33;99310.22;1087176;47;19969;-78
2023/08/25 03:53:13;;;;;;;;;;;;;;;22.59;69.94;99307.72;1087185;47;19947;-80
2023/08/25 03:54:16;;;;;;;;;;;;;;;22.66;70.21;99306.75;1087161;54;19943;-80
2023/08/25 03:55:17;;;;;;;;;;;;;;;22.64;70.17;99306.97;1087136;51;20046;-83
2023/08/25 03:56:21;;;;;;;;;;;;;;;22.66;69.50;99298.59;1087245;47;19943;-82
2023/08/25 03:57:22;;;;;;;;;;;;;;;22.67;69.55;99297.53;1087140;47;19942;-81
2023/08/25 03:58:25;;;;;;;;;;;;;;;22.69;69.51;99292.63;1087168;54;19942;-79
2023/08/25 03:59:26;;;;;;;;;;;;;;;22.70;69.38;99283.41;1087252;47;19954;-81
2023/08/25 04:00:30;;;;;;;;;;;;;;;22.69;69.30;99290.75;1087160;47;19949;-79
2023/08/25 04:01:31;;;;;;;;;;;;;;;22.71;69.12;99291.34;1087224;54;19966;-80
2023/08/25 04:02:34;;;;;;;;;;;;;;;22.68;68.92;99291.81;1087166;47;19966;-80
2023/08/25 04:03:38;;;;;;;;;;;;;;;22.64;68.88;99289.84;1087172;54;19935;-79
2023/08/25 04:04:41;;;;;;;;;;;;;;;22.62;68.63;99300.13;1087143;47;20057;-79
2023/08/25 04:05:42;;;;;;;;;;;;;;;22.62;68.96;99283.78;1087158;54;20025;-80
2023/08/25 04:06:45;;;;;;;;;;;;;;;22.58;69.15;99287.00;1087080;47;19954;-82
2023/08/25 04:07:46;;;;;;;;;;;;;;;22.51;69.23;99280.88;1087109;47;19966;-79
2023/08/25 04:08:47;;;;;;;;;;;;;;;22.52;69.25;99285.25;1087140;47;19967;-79
2023/08/25 04:09:51;;;;;;;;;;;;;;;22.54;69.21;99277.66;1087013;47;19983;-80
2023/08/25 04:10:52;;;;;;;;;;;;;;;22.57;68.94;99277.19;1087192;47;19942;-80
2023/08/25 04:11:55;;;;;;;;;;;;;;;22.54;68.90;99271.38;1087267;54;19967;-80
2023/08/25 04:12:57;;;;;;;;;;;;;;;22.58;68.83;99265.19;1087138;47;20081;-80
2023/08/25 04:14:01;;;;;;;;;;;;;;;22.58;68.57;99267.94;1087074;47;19967;-79
2023/08/25 04:15:01;;;;;;;;;;;;;;;22.58;68.55;99262.47;1087097;47;19942;-79
2023/08/25 04:16:05;;;;;;;;;;;;;;;22.57;68.56;99266.31;1087101;47;19942;-80
2023/08/25 04:17:06;;;;;;;;;;;;;;;22.52;68.74;99263.47;1087113;47;20367;-79
2023/08/25 04:18:09;;;;;;;;;;;;;;;22.53;68.90;99267.84;1087130;47;19943;-80
2023/08/25 04:19:16;;;;;;;;;;;;;;;22.55;68.94;99263.00;1087129;54;19943;-80
2023/08/25 04:20:20;;;;;;;;;;;;;;;22.53;68.63;99256.13;1086974;47;19943;-80
2023/08/25 04:21:21;;;;;;;;;;;;;;;22.55;68.62;99263.00;1087132;47;19943;-80
2023/08/25 04:22:24;;;;;;;;;;;;;;;22.58;68.68;99265.19;1087157;46;19951;-80
2023/08/25 04:23:26;;;;;;;;;;;;;;;22.56;68.54;99264.66;1087083;47;19997;-80
2023/08/25 04:24:29;;;;;;;;;;;;;;;22.56;68.69;99261.91;1087100;47;19943;-79
2023/08/25 04:25:31;;;;;;;;;;;;;;;22.56;68.75;99264.66;1090697;39;20273;-80
2023/08/25 04:26:38;;;;;;;;;;;;;;;22.51;68.96;99271.88;1087125;47;19942;-80
2023/08/25 04:27:39;;;;;;;;;;;;;;;22.44;69.36;99272.03;1087369;47;19943;-80
2023/08/25 04:28:43;;;;;;;;;;;;;;;22.38;69.78;99267.53;1087371;54;20002;-79
2023/08/25 04:29:44;;;;;;;;;;;;;;;22.35;69.86;99265.28;1087637;54;19943;-79
2023/08/25 04:30:48;;;;;;;;;;;;;;;22.34;69.75;99271.78;1087230;54;19942;-79
2023/08/25 04:31:58;;;;;;;;;;;;;;;22.29;70.07;99276.03;1087250;47;19954;-78
2023/08/25 04:33:15;;;;;;;;;;;;;;;22.27;70.25;99274.63;1087221;47;19966;-79
2023/08/25 04:34:18;;;;;;;;;;;;;;;22.26;70.40;99275.69;1087316;46;19983;-79
2023/08/25 04:35:22;;;;;;;;;;;;;;;22.22;70.43;99274.53;1086972;47;19939;-79
2023/08/25 04:36:22;;;;;;;;;;;;;;;22.23;70.49;99274.28;1086940;47;19943;-78
2023/08/25 04:37:26;;;;;;;;;;;;;;;22.19;70.81;99273.13;1087168;54;19943;-80
2023/08/25 04:38:27;;;;;;;;;;;;;;;22.17;70.91;99272.53;1087161;47;19943;-79
2023/08/25 04:39:31;;;;;;;;;;;;;;;22.22;70.77;99272.63;1087142;54;19943;-79
2023/08/25 04:40:31;;;;;;;;;;;;;;;22.26;70.58;99275.69;1087063;54;19994;-80
2023/08/25 04:41:36;;;;;;;;;;;;;;;22.25;70.70;99266.72;1087091;47;19942;-80
2023/08/25 04:42:38;;;;;;;;;;;;;;;22.28;70.44;99268.13;1087147;47;19938;-82
2023/08/25 04:43:41;;;;;;;;;;;;;;;22.28;70.61;99268.97;1087051;47;19943;-79
2023/08/25 04:44:42;;;;;;;;;;;;;;;22.28;70.45;99279.00;1087128;54;19942;-82
2023/08/25 04:45:47;;;;;;;;;;;;;;;22.26;70.59;99271.09;1086886;47;19938;-82
2023/08/25 04:46:49;;;;;;;;;;;;;;;22.28;70.72;99268.97;1087047;47;19998;-81
2023/08/25 04:47:53;;;;;;;;;;;;;;;22.26;70.47;99271.09;1086977;47;19942;-82
2023/08/25 04:48:55;;;;;;;;;;;;;;;22.32;70.27;99274.75;1087061;47;19949;-82
2023/08/25 04:50:03;;;;;;;;;;;;;;;22.33;70.58;99272.84;1087116;47;20009;-80
2023/08/25 04:51:04;;;;;;;;;;;;;;;22.36;70.56;99269.66;1087090;47;19942;-81
2023/08/25 04:52:08;;;;;;;;;;;;;;;22.34;70.55;99269.88;1086951;47;19943;-81
2023/08/25 04:53:09;;;;;;;;;;;;;;;22.36;70.45;99269.66;1087160;47;20015;-81
2023/08/25 04:54:13;;;;;;;;;;;;;;;22.37;70.52;99272.13;1087089;47;19943;-81
2023/08/25 04:55:18;;;;;;;;;;;;;;;22.34;70.48;99266.34;1087073;47;19942;-82
2023/08/25 04:56:21;;;;;;;;;;;;;;;22.33;70.26;99262.81;1086965;47;19967;-81
2023/08/25 04:57:22;;;;;;;;;;;;;;;22.31;70.74;99266.81;1087146;54;20014;-81
2023/08/25 04:58:26;;;;;;;;;;;;;;;22.27;70.40;99261.03;1087151;54;19950;-81
2023/08/25 04:59:26;;;;;;;;;;;;;;;22.23;70.98;99260.69;1087088;47;20015;-81
2023/08/25 05:00:30;;;;;;;;;;;;;;;22.22;71.12;99269.09;1087459;39;20175;-82
2023/08/25 05:01:32;;;;;;;;;;;;;;;22.26;70.71;99259.38;1087028;47;19950;-81
2023/08/25 05:02:35;;;;;;;;;;;;;;;22.26;70.72;99254.75;1087102;47;19955;-82
2023/08/25 05:03:36;;;;;;;;;;;;;;;22.28;70.50;99262.69;1087043;47;19943;-79
2023/08/25 05:04:40;;;;;;;;;;;;;;;22.31;70.69;99262.22;1087063;47;19974;-79
2023/08/25 05:05:44;;;;;;;;;;;;;;;22.29;70.56;99264.34;1086973;47;19942;-81
2023/08/25 05:06:47;;;;;;;;;;;;;;;22.33;70.61;99267.41;1087158;47;19947;-82
2023/08/25 05:07:48;;;;;;;;;;;;;;;22.29;70.63;99272.50;1087119;47;19943;-83
2023/08/25 05:08:54;;;;;;;;;;;;;;;22.26;71.02;99275.69;1087102;54;19943;-83
2023/08/25 05:09:54;;;;;;;;;;;;;;;22.28;70.70;99271.69;1087050;47;19943;-84
2023/08/25 05:10:58;;;;;;;;;;;;;;;22.33;70.68;99273.69;1087137;47;19942;-82
2023/08/25 05:11:59;;;;;;;;;;;;;;;22.35;70.71;99274.25;1087087;47;19958;-81
2023/08/25 05:13:03;;;;;;;;;;;;;;;22.36;70.77;99272.38;1087095;47;19949;-80
2023/08/25 05:14:04;;;;;;;;;;;;;;;22.38;70.45;99278.41;1087111;47;19950;-81
2023/08/25 05:15:08;;;;;;;;;;;;;;;22.37;70.60;99280.28;1087130;47;19967;-85
2023/08/25 05:16:10;;;;;;;;;;;;;;;22.32;71.05;99280.19;1087112;47;19943;-83
2023/08/25 05:17:23;;;;;;;;;;;;;;;22.32;71.60;99279.34;1087065;47;19973;-84
2023/08/25 05:20:02;;;;;;;;;;;;;;;22.30;71.69;99287.78;1087022;47;19950;-86
2023/08/25 05:21:06;;;;;;;;;;;;;;;22.32;71.65;99282.06;1087225;47;19949;-85
2023/08/25 05:23:53;;;;;;;;;;;;;;;22.39;70.95;99296.38;1086920;47;19958;-88
2023/08/25 05:24:55;;;;;;;;;;;;;;;22.38;71.21;99302.91;1087173;47;20002;-85
2023/08/25 05:26:01;;;;;;;;;;;;;;;22.41;70.97;99306.00;1087116;47;19943;-85
2023/08/25 05:27:02;;;;;;;;;;;;;;;22.46;70.67;99308.00;1087165;47;19942;-87
2023/08/25 05:28:09;;;;;;;;;;;;;;;22.46;70.79;99310.72;1087201;47;19943;-87
2023/08/25 05:29:10;;;;;;;;;;;;;;;22.50;70.77;99314.59;1087084;47;19983;-84
2023/08/25 05:30:14;;;;;;;;;;;;;;;22.50;70.60;99314.59;1086958;47;19958;-84
2023/08/25 05:31:15;;;;;;;;;;;;;;;22.51;70.56;99315.47;1086985;47;20945;-86
2023/08/25 05:32:38;;;;;;;;;;;;;;;22.59;70.21;99313.16;1087024;47;19942;-83